EKRNETNS

Guest
Details From EKRN - Bornholm Ronne
To ETNS - SCHLESWIG
Flight Number -
Tags generated
Created
Modified
Stats Distance 186 nm / 344 km
Max Altitude 20,700 ft / 6,309 m
Waypoints 3
Social Downloads 2
Likes 0
Share VATSIM

Download

Looking for another format? Having issues loading an existing format? Contact us
Advertisement - Login to hide

Notes

Basic altitude profile: - Ascent Rate: 2500ft/min - Ascent Speed: 250kts - Cruise Altitude: 35000ft - Cruise Speed: 420kts - Descent Rate: 1500ft/min - Descent Speed: 250kts

Route

EKRN MONAK ETNS

ID Type Via Altitude Latitude Longitude Leg Dist Tot Dist Heading (true) Name
O EKRN APT - 0 ft / 0 m 55.06327˚ 14.75956˚ - 0 nm - Bornholm Ronne
MONAK FIX - 20,700 ft / 6,309 m 54.94556˚ 12.31361˚ 84 nm 84 nm 266° / 264° -
O ETNS APT - 0 ft / 0 m 54.45862˚ 9.51683˚ 101 nm 185 nm 254° / 252° SCHLESWIG

Altitude Profile

Advertisement - Login to hide

Weather


0- 5 10 15 20 25 30 35+ Temperature / ° C

Clouds and Precipitation
Forecast for 2017-12-13 06:00 UTC. Updated 20 minutes ago

Ground ~20,000 ft ~40,000 ft Winds

EKRN

Details ICAO EKRN (RNN)
Name Bornholm Ronne
Region Denmark / Faroe Islands
Timezone Europe/Copenhagen (UTC+1.0)
Stats Elevation 52 ft / 16 m (AMSL)
Location 55.063265° 14.759558°
Runways 1
Magnetic Variation 4.381° E

METAR

EKRN 130120Z AUTO 25024KT 9999NDV SCT011/// BKN054/// 04/02 Q1007

Decode

TAF

Not found

Departure Runways

ID Width Length Bearing (true) Bearing (mag) Surface Threshold Offset Overrun Length
11 164 ft / 50 m 6,551 ft / 1,997 m 113.76° 109.38° Asphalt 0 ft / 0 m 197 ft / 60 m
29 164 ft / 50 m 6,551 ft / 1,997 m 293.78° 289.40° Asphalt 0 ft / 0 m 0 ft / 0 m

ETNS

Details ICAO ETNS
Name SCHLESWIG
Region Germany - Military
Timezone Europe/Berlin (UTC+1.0)
Stats Elevation 70 ft / 21 m (AMSL)
Location 54.458625° 9.516833°
Runways 2
Magnetic Variation 2.640° E

METAR

ETNS 130120Z AUTO 22018KT 7000 // ////// 01/M00 Q1007 ///

Decode

TAF

Not found

Destination Runways

ID Width Length Bearing (true) Bearing (mag) Surface Threshold Offset Overrun Length
05 98 ft / 30 m 7,969 ft / 2,429 m 47.79° 45.15° Asphalt 0 ft / 0 m 1,089 ft / 332 m
07 148 ft / 45 m 6,536 ft / 1,992 m 73.22° 70.58° Asphalt 0 ft / 0 m 301 ft / 92 m
23 98 ft / 30 m 7,969 ft / 2,429 m 227.82° 225.18° Asphalt 0 ft / 0 m 1,017 ft / 310 m
25 148 ft / 45 m 6,536 ft / 1,992 m 253.24° 250.60° Asphalt 0 ft / 0 m 305 ft / 93 m